createdAt,value
2023-04-26T00:00:43.539Z,2.90
2023-04-26T00:02:18.217Z,2.97
2023-04-26T00:03:51.760Z,2.80
2023-04-26T00:05:27.041Z,2.83
2023-04-26T00:07:00.566Z,3.47
2023-04-26T00:08:33.624Z,2.50
2023-04-26T00:10:07.541Z,2.70
2023-04-26T00:11:40.610Z,2.90
2023-04-26T00:13:15.077Z,2.70
2023-04-26T00:14:48.141Z,2.80
2023-04-26T00:16:21.004Z,3.20
2023-04-26T00:17:54.253Z,2.93
2023-04-26T00:19:27.669Z,2.97
2023-04-26T00:21:00.717Z,3.30
2023-04-26T00:22:33.912Z,3.07
2023-04-26T00:24:07.854Z,2.83
2023-04-26T00:25:40.947Z,2.93
2023-04-26T00:27:13.049Z,3.00
2023-04-26T00:28:47.900Z,3.23
2023-04-26T00:30:21.232Z,2.80
2023-04-26T00:31:54.383Z,3.13
2023-04-26T00:33:27.531Z,3.20
2023-04-26T00:35:00.625Z,3.00
2023-04-26T00:36:33.704Z,3.37
2023-04-26T00:38:07.683Z,3.10
2023-04-26T00:39:40.911Z,2.90
2023-04-26T00:41:14.243Z,3.60
2023-04-26T00:42:47.345Z,3.27
2023-04-26T00:44:21.903Z,3.47
2023-04-26T00:45:55.206Z,3.20
2023-04-26T00:47:30.889Z,3.57
2023-04-26T00:49:04.619Z,3.60
2023-04-26T00:50:37.839Z,2.83
2023-04-26T00:52:11.821Z,3.83
2023-04-26T00:53:44.907Z,3.70
2023-04-26T00:55:17.233Z,3.57
2023-04-26T00:56:52.111Z,3.57
2023-04-26T00:58:25.732Z,3.47
2023-04-26T01:00:00.270Z,3.17
2023-04-26T01:01:32.710Z,3.30
2023-04-26T01:03:06.105Z,3.83
2023-04-26T01:04:40.087Z,3.77
2023-04-26T01:06:12.638Z,3.43
2023-04-26T01:07:46.600Z,3.40
2023-04-26T01:09:19.988Z,3.00
2023-04-26T01:10:54.087Z,3.30
2023-04-26T01:12:27.840Z,4.00
2023-04-26T01:14:00.015Z,3.30
2023-04-26T01:15:34.680Z,3.40
2023-04-26T01:17:06.965Z,3.30
2023-04-26T01:18:40.141Z,3.60
2023-04-26T01:20:15.419Z,3.50
2023-04-26T01:21:48.524Z,3.63
2023-04-26T01:23:22.944Z,3.53
2023-04-26T01:24:58.085Z,3.40
2023-04-26T01:26:30.233Z,3.53
2023-04-26T01:28:03.770Z,3.43
2023-04-26T01:29:37.386Z,4.20
2023-04-26T01:31:10.754Z,4.03
2023-04-26T01:32:43.877Z,3.63
2023-04-26T01:34:16.167Z,3.43
2023-04-26T01:35:52.318Z,3.80
2023-04-26T01:37:25.034Z,3.80
2023-04-26T01:38:59.557Z,3.47
2023-04-26T01:40:32.629Z,3.60
2023-04-26T01:42:06.750Z,3.27
2023-04-26T01:43:39.835Z,3.50
2023-04-26T01:45:13.129Z,3.70
2023-04-26T01:47:04.868Z,3.53
2023-04-26T01:48:36.954Z,3.60
2023-04-26T01:50:11.275Z,3.67
2023-04-26T01:51:44.334Z,3.87
2023-04-26T01:53:16.567Z,3.73
2023-04-26T01:54:51.225Z,3.90
2023-04-26T01:56:26.884Z,3.63
2023-04-26T01:57:59.036Z,3.63
2023-04-26T01:59:32.914Z,3.67
2023-04-26T02:01:06.615Z,3.63
2023-04-26T02:02:39.852Z,3.17
2023-04-26T02:04:12.573Z,3.80
2023-04-26T02:05:45.661Z,3.80
2023-04-26T02:07:19.523Z,3.63
2023-04-26T02:08:54.238Z,3.73
2023-04-26T02:10:28.891Z,3.93
2023-04-26T02:12:02.837Z,3.73
2023-04-26T02:13:35.888Z,3.60
2023-04-26T02:15:10.400Z,3.63
2023-04-26T02:16:43.631Z,3.83
2023-04-26T02:18:17.086Z,3.90
2023-04-26T02:19:50.209Z,3.60
2023-04-26T02:21:23.425Z,3.43
2023-04-26T02:22:56.479Z,3.73
2023-04-26T02:24:30.582Z,3.70
2023-04-26T02:26:06.437Z,3.83
2023-04-26T02:27:38.536Z,3.83
2023-04-26T02:29:11.623Z,3.90
2023-04-26T02:30:44.739Z,4.10
2023-04-26T02:32:18.001Z,3.90
2023-04-26T02:33:51.116Z,3.70
2023-04-26T02:35:24.038Z,4.23
2023-04-26T02:36:57.121Z,4.40
2023-04-26T02:38:30.273Z,4.10
2023-04-26T02:40:05.514Z,3.97
2023-04-26T02:41:40.010Z,4.10
2023-04-26T02:43:13.402Z,4.13
2023-04-26T02:44:46.483Z,4.20
2023-04-26T02:46:19.797Z,4.13
2023-04-26T02:47:53.103Z,4.20
2023-04-26T02:49:25.606Z,4.53
2023-04-26T02:50:59.287Z,4.17
2023-04-26T02:52:32.623Z,3.60
2023-04-26T02:54:07.071Z,4.10
2023-04-26T02:55:41.167Z,4.83
2023-04-26T02:57:15.851Z,3.93
2023-04-26T02:58:49.765Z,4.40
2023-04-26T03:00:22.277Z,3.60
2023-04-26T03:01:55.397Z,4.33
2023-04-26T03:03:28.981Z,4.57
2023-04-26T03:05:02.797Z,3.90
2023-04-26T03:06:36.511Z,4.00
2023-04-26T03:08:09.108Z,4.57
2023-04-26T03:09:42.215Z,4.23
2023-04-26T03:11:15.397Z,4.30
2023-04-26T03:12:49.787Z,4.27
2023-04-26T03:14:22.123Z,4.27
2023-04-26T03:15:55.202Z,3.80
2023-04-26T03:17:28.947Z,4.00
2023-04-26T03:19:01.532Z,3.80
2023-04-26T03:20:34.808Z,4.00
2023-04-26T03:22:08.107Z,4.13
2023-04-26T03:23:41.339Z,4.30
2023-04-26T03:25:16.218Z,4.10
2023-04-26T03:26:49.646Z,4.40
2023-04-26T03:28:24.407Z,4.17
2023-04-26T03:29:57.507Z,3.97
2023-04-26T03:31:29.889Z,4.20
2023-04-26T03:33:03.031Z,4.20
2023-04-26T03:34:36.272Z,4.40
2023-04-26T03:36:10.452Z,4.37
2023-04-26T03:37:43.988Z,4.63
2023-04-26T03:39:19.320Z,4.03
2023-04-26T03:40:52.429Z,4.20
2023-04-26T03:42:25.864Z,4.43
2023-04-26T03:44:00.329Z,3.93
2023-04-26T03:45:33.461Z,4.50
2023-04-26T03:47:06.704Z,4.67
2023-04-26T03:48:40.290Z,4.17
2023-04-26T03:50:12.592Z,4.20
2023-04-26T03:51:45.654Z,4.10
2023-04-26T03:53:18.742Z,4.60
2023-04-26T03:54:50.876Z,3.90
2023-04-26T03:56:24.156Z,4.10
2023-04-26T03:57:57.276Z,4.57
2023-04-26T03:59:31.794Z,4.47
2023-04-26T04:01:06.128Z,4.17
2023-04-26T04:02:39.328Z,4.07
2023-04-26T04:04:13.083Z,3.60
2023-04-26T04:05:46.785Z,4.57
2023-04-26T04:07:19.324Z,4.07
2023-04-26T04:08:52.683Z,4.03
2023-04-26T04:10:26.007Z,3.87
2023-04-26T04:11:59.205Z,4.10
2023-04-26T04:13:32.878Z,3.80
2023-04-26T04:15:08.579Z,3.90
2023-04-26T04:16:43.937Z,4.03
2023-04-26T04:18:17.931Z,3.80
2023-04-26T04:19:51.238Z,3.37
2023-04-26T04:21:24.376Z,3.67
2023-04-26T04:22:57.793Z,3.80
2023-04-26T04:24:34.222Z,3.30
2023-04-26T04:26:07.547Z,3.50
2023-04-26T04:27:42.590Z,4.07
2023-04-26T04:29:16.594Z,3.90
2023-04-26T04:30:51.412Z,3.57
2023-04-26T04:32:24.874Z,3.40
2023-04-26T04:33:59.157Z,3.60
2023-04-26T04:35:33.797Z,3.80
2023-04-26T04:37:08.758Z,3.63
2023-04-26T04:38:41.893Z,3.50
2023-04-26T04:40:16.115Z,3.73
2023-04-26T04:41:51.734Z,3.90
2023-04-26T04:43:24.643Z,3.17
2023-04-26T04:44:59.463Z,3.90
2023-04-26T04:46:35.195Z,3.40
2023-04-26T04:48:09.274Z,3.20
2023-04-26T04:49:43.326Z,3.50
2023-04-26T04:51:16.458Z,3.13
2023-04-26T04:52:49.953Z,2.93
2023-04-26T04:54:23.118Z,3.67
2023-04-26T04:55:57.268Z,3.67
2023-04-26T04:57:31.003Z,3.60
2023-04-26T04:59:04.258Z,3.50
2023-04-26T05:00:38.764Z,3.13
2023-04-26T05:02:25.741Z,3.17
2023-04-26T05:03:59.649Z,3.37
2023-04-26T05:05:33.003Z,3.50
2023-04-26T05:07:06.687Z,3.10
2023-04-26T05:08:40.820Z,3.37
2023-04-26T05:10:15.650Z,3.07
2023-04-26T05:11:48.730Z,3.03
2023-04-26T05:13:22.541Z,2.97
2023-04-26T05:14:55.721Z,3.10
2023-04-26T05:16:29.152Z,3.20
2023-04-26T05:18:03.925Z,2.73
2023-04-26T05:19:37.078Z,2.80
2023-04-26T05:21:10.644Z,3.00
2023-04-26T05:22:43.895Z,3.27
2023-04-26T05:24:16.968Z,3.03
2023-04-26T05:25:51.046Z,2.90
2023-04-26T05:27:45.600Z,3.33
2023-04-26T05:29:38.941Z,3.43
2023-04-26T05:31:32.300Z,3.40
2023-04-26T05:33:12.935Z,3.10
2023-04-26T05:34:52.416Z,4.17
2023-04-26T05:36:26.895Z,3.30
2023-04-26T05:38:01.150Z,3.27
2023-04-26T05:39:34.586Z,3.10
2023-04-26T05:41:07.812Z,3.20
2023-04-26T05:42:40.954Z,3.57
2023-04-26T05:44:15.405Z,2.93
2023-04-26T05:45:52.921Z,2.67
2023-04-26T05:47:26.070Z,3.27
2023-04-26T05:49:00.881Z,2.80
2023-04-26T05:50:34.845Z,3.03
2023-04-26T05:52:07.976Z,3.47
2023-04-26T05:53:41.710Z,3.23
2023-04-26T05:55:14.803Z,2.97
2023-04-26T05:56:48.332Z,3.77
2023-04-26T05:58:21.417Z,3.10
2023-04-26T05:59:54.690Z,3.00
2023-04-26T06:01:28.173Z,3.50
2023-04-26T06:03:01.504Z,3.00
2023-04-26T06:04:36.721Z,2.93
2023-04-26T06:06:15.358Z,3.00
2023-04-26T06:07:48.485Z,3.13
2023-04-26T06:09:21.601Z,3.30
2023-04-26T06:10:54.833Z,2.73
2023-04-26T06:12:27.927Z,3.07
2023-04-26T06:14:01.346Z,3.27
2023-04-26T06:15:35.475Z,2.93
2023-04-26T06:17:08.891Z,3.10
2023-04-26T06:18:42.065Z,3.73
2023-04-26T06:20:16.788Z,3.80
2023-04-26T06:21:49.923Z,4.20
2023-04-26T06:23:23.045Z,4.07
2023-04-26T06:24:56.291Z,3.80
2023-04-26T06:26:29.373Z,4.47
2023-04-26T06:28:03.734Z,3.67
2023-04-26T06:29:37.083Z,3.70
2023-04-26T06:31:10.204Z,4.00
2023-04-26T06:32:43.619Z,3.37
2023-04-26T06:34:16.725Z,3.70
2023-04-26T06:35:51.593Z,4.20
2023-04-26T06:37:25.227Z,3.27
2023-04-26T06:38:58.422Z,3.10
2023-04-26T06:40:31.476Z,2.90
2023-04-26T06:42:04.862Z,3.40
2023-04-26T06:43:55.724Z,3.50
2023-04-26T06:45:32.349Z,3.60
2023-04-26T06:47:09.453Z,3.47
2023-04-26T06:48:42.925Z,3.20
2023-04-26T06:50:16.084Z,3.73
2023-04-26T06:51:52.718Z,3.40
2023-04-26T06:53:25.830Z,2.70
2023-04-26T06:55:02.000Z,3.10
2023-04-26T06:56:35.221Z,2.93
2023-04-26T06:58:08.363Z,2.97
2023-04-26T06:59:41.447Z,3.00
2023-04-26T07:01:14.552Z,3.03
2023-04-26T07:02:47.840Z,2.40
2023-04-26T07:04:21.456Z,3.20
2023-04-26T07:05:56.828Z,3.47
2023-04-26T07:07:31.550Z,2.63
2023-04-26T07:09:04.874Z,2.60
2023-04-26T07:10:38.200Z,2.70
2023-04-26T07:12:12.740Z,2.90
2023-04-26T07:13:45.831Z,3.20
2023-04-26T07:15:18.895Z,3.20
2023-04-26T07:16:52.024Z,2.97
2023-04-26T07:18:25.201Z,3.23
2023-04-26T07:19:58.301Z,2.37
2023-04-26T07:21:31.349Z,2.83
2023-04-26T07:23:05.755Z,2.40
2023-04-26T07:24:38.831Z,2.70
2023-04-26T07:26:13.118Z,2.73
2023-04-26T07:27:46.259Z,2.60
2023-04-26T07:29:19.822Z,3.00
2023-04-26T07:30:52.858Z,3.20
2023-04-26T07:32:26.034Z,3.07
2023-04-26T07:33:59.352Z,2.60
2023-04-26T07:35:35.253Z,2.90
2023-04-26T07:37:08.299Z,2.77
2023-04-26T07:38:42.835Z,3.57
2023-04-26T07:40:16.399Z,2.83
2023-04-26T07:41:49.475Z,2.73
2023-04-26T07:43:22.929Z,2.60
2023-04-26T07:44:56.042Z,3.13
2023-04-26T07:46:29.134Z,2.83
2023-04-26T07:48:02.386Z,2.50
2023-04-26T07:49:35.487Z,2.93
2023-04-26T07:51:09.652Z,2.57
2023-04-26T07:52:43.332Z,2.73
2023-04-26T07:54:17.803Z,3.10
2023-04-26T07:55:51.558Z,2.50
2023-04-26T07:57:24.691Z,2.50
2023-04-26T07:58:57.736Z,2.80
2023-04-26T08:00:31.097Z,2.90
2023-04-26T08:02:04.193Z,2.73
2023-04-26T08:03:37.606Z,2.73
2023-04-26T08:05:11.284Z,2.20
2023-04-26T08:06:45.134Z,2.57
2023-04-26T08:08:18.977Z,2.20
2023-04-26T08:09:53.447Z,2.37
2023-04-26T08:11:26.659Z,2.00
2023-04-26T08:13:03.199Z,2.30
2023-04-26T08:14:36.955Z,1.97
2023-04-26T08:16:10.035Z,2.20
2023-04-26T08:17:43.224Z,2.20
2023-04-26T08:19:16.358Z,1.90
2023-04-26T08:20:49.423Z,1.80
2023-04-26T08:22:22.474Z,1.80
2023-04-26T08:23:55.715Z,1.97
2023-04-26T08:25:30.603Z,2.53
2023-04-26T08:27:03.792Z,2.00
2023-04-26T08:28:36.847Z,2.23
2023-04-26T08:30:10.949Z,2.50
2023-04-26T08:31:44.084Z,2.33
2023-04-26T08:33:19.787Z,2.40
2023-04-26T08:34:52.924Z,2.17
2023-04-26T08:36:26.152Z,2.10
2023-04-26T08:37:59.253Z,2.93
2023-04-26T08:39:32.368Z,2.93
2023-04-26T08:41:07.457Z,2.50
2023-04-26T08:42:43.872Z,2.10
2023-04-26T08:44:17.019Z,2.47
2023-04-26T08:45:50.952Z,2.40
2023-04-26T08:47:31.573Z,2.73
2023-04-26T08:49:16.366Z,2.50
2023-04-26T08:50:50.305Z,2.30
2023-04-26T08:52:24.214Z,3.23
2023-04-26T08:53:59.153Z,2.30
2023-04-26T08:55:33.303Z,2.80
2023-04-26T08:57:08.431Z,2.53
2023-04-26T08:58:41.652Z,2.20
2023-04-26T09:00:16.174Z,2.27
2023-04-26T09:01:49.660Z,2.27
2023-04-26T09:03:26.401Z,2.50
2023-04-26T09:04:59.894Z,2.30
2023-04-26T09:06:34.096Z,2.30
2023-04-26T09:08:09.524Z,2.10
2023-04-26T09:09:44.595Z,2.37
2023-04-26T09:11:17.692Z,2.00
2023-04-26T09:12:54.280Z,2.30
2023-04-26T09:14:28.526Z,1.90
2023-04-26T09:16:03.476Z,2.00
2023-04-26T09:17:39.491Z,2.13
2023-04-26T09:19:12.639Z,2.83
2023-04-26T09:20:47.358Z,2.47
2023-04-26T09:22:29.576Z,2.50
2023-04-26T09:24:04.693Z,2.60
2023-04-26T09:25:38.452Z,2.30
2023-04-26T09:27:10.573Z,2.70
2023-04-26T09:28:46.458Z,2.00
2023-04-26T09:30:20.862Z,2.27
2023-04-26T09:31:53.996Z,3.07
2023-04-26T09:33:27.225Z,2.67
2023-04-26T09:35:00.552Z,2.50
2023-04-26T09:36:33.659Z,2.23
2023-04-26T09:38:12.205Z,2.53
2023-04-26T09:39:45.988Z,2.00
2023-04-26T09:41:19.110Z,2.37
2023-04-26T09:42:59.827Z,2.10
2023-04-26T09:44:34.725Z,1.53
2023-04-26T09:46:07.833Z,1.83
2023-04-26T09:47:41.004Z,2.30
2023-04-26T09:49:14.159Z,2.43
2023-04-26T09:50:47.438Z,2.07
2023-04-26T09:52:21.387Z,2.43
2023-04-26T09:53:55.589Z,2.13
2023-04-26T09:55:35.333Z,1.90
2023-04-26T09:57:08.903Z,2.20
2023-04-26T09:58:58.773Z,2.07
2023-04-26T10:00:33.789Z,1.80
2023-04-26T10:02:14.917Z,1.77
2023-04-26T10:03:48.494Z,2.10
2023-04-26T10:05:22.113Z,2.27
2023-04-26T10:06:55.233Z,2.27
2023-04-26T10:08:28.276Z,2.07
2023-04-26T10:10:02.158Z,2.13
2023-04-26T10:11:37.213Z,1.90
2023-04-26T10:13:12.731Z,2.20
2023-04-26T10:14:46.553Z,1.80
2023-04-26T10:16:22.442Z,2.20
2023-04-26T10:17:55.654Z,2.50
2023-04-26T10:19:30.625Z,2.30
2023-04-26T10:21:08.408Z,2.17
2023-04-26T10:22:46.879Z,2.40
2023-04-26T10:24:20.033Z,2.10
2023-04-26T10:25:53.817Z,1.97
2023-04-26T10:27:51.899Z,2.33
2023-04-26T10:29:26.294Z,2.20
2023-04-26T10:31:00.518Z,2.20
2023-04-26T10:32:54.970Z,2.40
2023-04-26T10:34:28.463Z,3.20
2023-04-26T10:36:13.405Z,2.00
2023-04-26T10:38:11.617Z,2.33
2023-04-26T10:39:46.048Z,2.30
2023-04-26T10:41:31.819Z,2.70
2023-04-26T10:43:29.311Z,2.70
2023-04-26T10:45:27.153Z,2.70
2023-04-26T10:47:00.271Z,2.50
2023-04-26T10:48:34.722Z,2.53
2023-04-26T10:50:09.720Z,2.67
2023-04-26T10:51:42.978Z,3.10
2023-04-26T10:53:16.209Z,2.70
2023-04-26T10:54:51.154Z,2.40
2023-04-26T10:56:54.571Z,2.73
2023-04-26T10:58:28.694Z,2.50
2023-04-26T11:00:35.589Z,3.77
2023-04-26T11:02:10.629Z,3.23
2023-04-26T11:04:03.447Z,2.90
2023-04-26T11:05:56.014Z,3.43
2023-04-26T11:07:38.756Z,2.53
2023-04-26T11:09:36.969Z,2.40
2023-04-26T11:11:13.556Z,2.80
2023-04-26T11:13:01.502Z,2.40
2023-04-26T11:14:35.472Z,2.30
2023-04-26T11:16:10.289Z,2.70
2023-04-26T11:17:43.458Z,2.70
2023-04-26T11:19:17.868Z,2.73
2023-04-26T11:20:51.026Z,2.23
2023-04-26T11:22:24.418Z,2.60
2023-04-26T11:23:57.687Z,2.40
2023-04-26T11:25:31.351Z,2.93
2023-04-26T11:27:10.142Z,2.40
2023-04-26T11:28:45.182Z,2.50
2023-04-26T11:30:21.155Z,2.60
2023-04-26T11:31:55.573Z,2.30
2023-04-26T11:33:28.941Z,2.60
2023-04-26T11:35:04.063Z,2.50
2023-04-26T11:36:39.091Z,3.33
2023-04-26T11:38:12.258Z,2.27
2023-04-26T11:39:46.652Z,2.23
2023-04-26T11:41:19.736Z,2.47
2023-04-26T11:42:52.807Z,2.43
2023-04-26T11:44:25.869Z,2.53
2023-04-26T11:46:01.418Z,2.50
2023-04-26T11:47:35.252Z,2.50
2023-04-26T11:49:10.506Z,2.33
2023-04-26T11:50:45.133Z,2.30
2023-04-26T11:52:18.233Z,2.20
2023-04-26T11:53:52.761Z,2.20
2023-04-26T11:55:29.248Z,2.20
2023-04-26T11:57:03.146Z,2.10
2023-04-26T11:58:36.286Z,2.23
2023-04-26T12:00:14.713Z,2.60
2023-04-26T12:01:52.423Z,2.50
2023-04-26T12:03:30.299Z,2.33
2023-04-26T12:05:04.272Z,2.43
2023-04-26T12:06:45.334Z,2.80
2023-04-26T12:08:18.477Z,2.40
2023-04-26T12:09:51.559Z,2.50
2023-04-26T12:11:24.642Z,2.80
2023-04-26T12:13:00.526Z,2.23
2023-04-26T12:14:34.153Z,2.27
2023-04-26T12:16:22.328Z,2.30
2023-04-26T12:18:01.730Z,2.77
2023-04-26T12:19:36.621Z,2.60
2023-04-26T12:21:09.792Z,3.03
2023-04-26T12:22:57.523Z,2.80
2023-04-26T12:24:34.461Z,3.07
2023-04-26T12:26:10.943Z,3.00
2023-04-26T12:27:44.034Z,2.87
2023-04-26T12:29:17.158Z,2.70
2023-04-26T12:30:50.968Z,3.30
2023-04-26T12:32:24.029Z,3.63
2023-04-26T12:33:57.122Z,2.80
2023-04-26T12:35:30.183Z,3.20
2023-04-26T12:37:03.343Z,3.10
2023-04-26T12:38:37.854Z,3.13
2023-04-26T12:40:12.380Z,2.70
2023-04-26T12:41:46.222Z,2.80
2023-04-26T12:43:19.850Z,2.50
2023-04-26T12:44:52.921Z,3.17
2023-04-26T12:46:26.386Z,2.80
2023-04-26T12:47:59.595Z,2.83
2023-04-26T12:49:32.675Z,2.80
2023-04-26T12:51:06.870Z,2.70
2023-04-26T12:52:40.799Z,2.50
2023-04-26T12:54:15.241Z,2.73
2023-04-26T12:55:48.504Z,2.93
2023-04-26T12:57:22.388Z,2.73
2023-04-26T12:58:55.536Z,2.93
2023-04-26T13:00:28.592Z,2.80
2023-04-26T13:02:03.426Z,2.60
2023-04-26T13:03:36.708Z,2.83
2023-04-26T13:05:10.548Z,3.00
2023-04-26T13:06:43.786Z,3.17
2023-04-26T13:08:16.908Z,2.67
2023-04-26T13:09:51.369Z,2.90
2023-04-26T13:11:24.586Z,2.80
2023-04-26T13:12:58.455Z,3.17
2023-04-26T13:14:31.508Z,3.27
2023-04-26T13:16:04.792Z,3.07
2023-04-26T13:17:38.627Z,2.77
2023-04-26T13:19:11.843Z,2.80
2023-04-26T13:20:44.885Z,2.47
2023-04-26T13:22:18.460Z,2.87
2023-04-26T13:23:51.528Z,2.23
2023-04-26T13:25:25.919Z,2.60
2023-04-26T13:26:59.646Z,2.50
2023-04-26T13:28:34.995Z,2.70
2023-04-26T13:30:09.483Z,2.50
2023-04-26T13:31:43.251Z,2.50
2023-04-26T13:33:16.425Z,2.70
2023-04-26T13:34:49.883Z,2.67
2023-04-26T13:36:22.936Z,2.57
2023-04-26T13:37:56.298Z,2.47
2023-04-26T13:39:29.776Z,3.10
2023-04-26T13:41:04.255Z,2.50
2023-04-26T13:42:37.365Z,2.43
2023-04-26T13:44:10.664Z,3.03
2023-04-26T13:45:44.131Z,3.00
2023-04-26T13:47:17.549Z,2.70
2023-04-26T13:48:50.619Z,2.67
2023-04-26T13:50:23.720Z,2.40
2023-04-26T13:51:56.785Z,2.93
2023-04-26T13:53:29.822Z,3.03
2023-04-26T13:55:03.821Z,2.60
2023-04-26T13:56:38.522Z,2.50
2023-04-26T13:58:11.616Z,2.47
2023-04-26T13:59:44.731Z,2.90
2023-04-26T14:01:17.895Z,2.67
2023-04-26T14:02:51.314Z,2.90
2023-04-26T14:04:24.769Z,3.00
2023-04-26T14:05:57.977Z,2.67
2023-04-26T14:07:31.144Z,2.60
2023-04-26T14:09:05.949Z,3.20
2023-04-26T14:10:38.993Z,3.50
2023-04-26T14:12:13.521Z,3.40
2023-04-26T14:13:46.559Z,3.63
2023-04-26T14:15:19.703Z,3.17
2023-04-26T14:16:52.925Z,3.73
2023-04-26T14:18:26.131Z,2.80
2023-04-26T14:19:59.333Z,4.87
2023-04-26T14:21:32.827Z,6.00
2023-04-26T14:23:06.128Z,2.70
2023-04-26T14:24:40.237Z,3.67
2023-04-26T14:26:13.526Z,2.60
2023-04-26T14:27:48.639Z,3.07
2023-04-26T14:29:22.041Z,2.73
2023-04-26T14:30:55.376Z,2.70
2023-04-26T14:32:28.519Z,4.27
2023-04-26T14:34:01.677Z,2.70
2023-04-26T14:35:34.744Z,3.90
2023-04-26T14:37:08.178Z,5.97
2023-04-26T14:38:43.057Z,36.40
2023-04-26T14:40:16.205Z,40.70
2023-04-26T14:41:49.333Z,40.80
2023-04-26T14:43:23.992Z,27.37
2023-04-26T14:44:59.867Z,20.50
2023-04-26T14:46:32.968Z,5.47
2023-04-26T14:48:06.988Z,4.13
2023-04-26T14:49:40.105Z,3.33
2023-04-26T14:51:13.263Z,2.47
2023-04-26T14:52:46.777Z,2.93
2023-04-26T14:54:19.909Z,5.70
2023-04-26T14:55:56.185Z,3.00
2023-04-26T14:57:29.650Z,3.00
2023-04-26T14:59:04.674Z,3.47
2023-04-26T15:00:38.959Z,3.07
2023-04-26T15:02:12.171Z,2.90
2023-04-26T15:03:45.543Z,3.70
2023-04-26T15:05:18.968Z,3.40
2023-04-26T15:06:52.082Z,5.50
2023-04-26T15:08:25.231Z,3.87
2023-04-26T15:09:57.383Z,9.33
2023-04-26T15:11:30.430Z,9.93
2023-04-26T15:13:04.245Z,4.73
2023-04-26T15:14:38.683Z,3.20
2023-04-26T15:16:11.794Z,2.70
2023-04-26T15:17:44.964Z,5.27
2023-04-26T15:19:18.609Z,2.97
2023-04-26T15:20:51.670Z,6.93
2023-04-26T15:22:24.816Z,15.03
2023-04-26T15:23:57.865Z,39.90
2023-04-26T15:25:30.960Z,5.10
2023-04-26T15:27:04.860Z,4.47
2023-04-26T15:28:37.939Z,8.33
2023-04-26T15:30:13.065Z,3.33
2023-04-26T15:31:46.151Z,3.00
2023-04-26T15:33:19.537Z,2.60
2023-04-26T15:34:53.084Z,2.80
2023-04-26T15:36:26.206Z,2.67
2023-04-26T15:37:59.304Z,2.60
2023-04-26T15:39:32.482Z,2.97
2023-04-26T15:41:06.603Z,2.77
2023-04-26T15:42:40.139Z,3.20
2023-04-26T15:44:13.521Z,2.80
2023-04-26T15:45:49.041Z,2.70
2023-04-26T15:47:22.198Z,2.80
2023-04-26T15:48:55.311Z,3.00
2023-04-26T15:50:28.409Z,2.77
2023-04-26T15:52:01.495Z,3.00
2023-04-26T15:53:34.595Z,3.30
2023-04-26T15:55:08.418Z,3.13
2023-04-26T15:56:41.566Z,3.07
2023-04-26T15:58:14.646Z,2.73
2023-04-26T15:59:47.740Z,3.33
2023-04-26T16:01:22.364Z,2.50
2023-04-26T16:02:55.874Z,3.00
2023-04-26T16:04:29.290Z,3.03
2023-04-26T16:06:02.882Z,3.10
2023-04-26T16:07:38.179Z,2.93
2023-04-26T16:09:24.918Z,2.83
2023-04-26T16:11:00.590Z,2.87
2023-04-26T16:12:34.063Z,3.00
2023-04-26T16:14:07.145Z,3.03
2023-04-26T16:15:40.349Z,2.40
2023-04-26T16:17:15.036Z,3.00
2023-04-26T16:18:48.109Z,2.70
2023-04-26T16:20:21.370Z,2.60
2023-04-26T16:21:54.494Z,2.33
2023-04-26T16:23:27.611Z,2.50
2023-04-26T16:25:00.828Z,2.57
2023-04-26T16:26:34.906Z,3.00
2023-04-26T16:28:10.028Z,2.80
2023-04-26T16:29:44.332Z,2.67
2023-04-26T16:31:17.569Z,2.97
2023-04-26T16:32:52.076Z,2.60
2023-04-26T16:34:26.754Z,3.10
2023-04-26T16:35:59.818Z,2.90
2023-04-26T16:37:32.976Z,2.57
2023-04-26T16:39:06.350Z,2.20
2023-04-26T16:40:39.463Z,2.83
2023-04-26T16:42:12.527Z,2.70
2023-04-26T16:43:45.976Z,2.87
2023-04-26T16:45:19.386Z,2.67
2023-04-26T16:46:52.455Z,2.50
2023-04-26T16:48:27.216Z,2.87
2023-04-26T16:50:00.422Z,3.10
2023-04-26T16:51:33.599Z,2.43
2023-04-26T16:53:06.978Z,2.93
2023-04-26T16:54:40.082Z,2.50
2023-04-26T16:56:13.196Z,2.53
2023-04-26T16:57:46.285Z,2.90
2023-04-26T16:59:19.381Z,2.20
2023-04-26T17:00:53.091Z,2.47
2023-04-26T17:02:26.341Z,2.57
2023-04-26T17:04:00.987Z,2.80
2023-04-26T17:05:38.660Z,2.70
2023-04-26T17:07:12.795Z,2.50
2023-04-26T17:08:45.997Z,2.47
2023-04-26T17:10:19.397Z,2.20
2023-04-26T17:11:52.476Z,2.43
2023-04-26T17:13:29.216Z,2.40
2023-04-26T17:15:04.591Z,2.67
2023-04-26T17:16:38.104Z,2.73
2023-04-26T17:18:11.887Z,2.20
2023-04-26T17:19:46.389Z,2.67
2023-04-26T17:21:19.498Z,2.47
2023-04-26T17:22:52.627Z,2.37
2023-04-26T17:24:25.824Z,2.57
2023-04-26T17:25:59.071Z,2.27
2023-04-26T17:27:32.135Z,2.50
2023-04-26T17:29:05.270Z,2.27
2023-04-26T17:30:38.315Z,2.60
2023-04-26T17:32:11.861Z,2.80
2023-04-26T17:33:44.975Z,2.40
2023-04-26T17:35:19.468Z,2.70
2023-04-26T17:36:52.954Z,2.40
2023-04-26T17:38:26.063Z,2.60
2023-04-26T17:39:59.280Z,2.33
2023-04-26T17:41:32.342Z,3.03
2023-04-26T17:43:06.717Z,2.63
2023-04-26T17:44:39.889Z,2.30
2023-04-26T17:46:13.098Z,2.63
2023-04-26T17:47:46.472Z,2.50
2023-04-26T17:49:20.988Z,2.30
2023-04-26T17:50:55.490Z,2.50
2023-04-26T17:52:28.601Z,3.40
2023-04-26T17:54:01.669Z,2.43
2023-04-26T17:55:34.840Z,2.57
2023-04-26T17:57:08.161Z,2.70
2023-04-26T17:58:41.411Z,2.80
2023-04-26T18:00:15.636Z,2.90
2023-04-26T18:01:49.103Z,2.93
2023-04-26T18:03:22.731Z,2.60
2023-04-26T18:04:56.594Z,3.10
2023-04-26T18:06:31.443Z,3.30
2023-04-26T18:08:05.216Z,2.37
2023-04-26T18:09:38.355Z,2.57
2023-04-26T18:11:11.439Z,2.97
2023-04-26T18:12:44.485Z,2.70
2023-04-26T18:14:17.621Z,3.00
2023-04-26T18:15:51.262Z,2.60
2023-04-26T18:17:24.466Z,2.80
2023-04-26T18:18:57.561Z,2.87
2023-04-26T18:20:30.779Z,2.70
2023-04-26T18:22:05.214Z,3.00
2023-04-26T18:23:38.292Z,2.93
2023-04-26T18:25:11.466Z,2.67
2023-04-26T18:26:44.652Z,2.60
2023-04-26T18:28:17.804Z,2.87
2023-04-26T18:29:51.033Z,3.00
2023-04-26T18:31:24.192Z,3.10
2023-04-26T18:32:57.388Z,2.97
2023-04-26T18:34:30.515Z,3.00
2023-04-26T18:36:03.711Z,2.80
2023-04-26T18:37:39.664Z,2.80
2023-04-26T18:39:12.744Z,2.80
2023-04-26T18:40:46.126Z,2.73
2023-04-26T18:42:19.252Z,2.60
2023-04-26T18:43:53.540Z,2.50
2023-04-26T18:45:27.007Z,2.70
2023-04-26T18:47:00.189Z,2.60
2023-04-26T18:48:33.330Z,3.10
2023-04-26T18:50:07.472Z,2.90
2023-04-26T18:51:40.489Z,3.20
2023-04-26T18:53:14.911Z,2.70
2023-04-26T18:54:48.010Z,3.27
2023-04-26T18:56:21.178Z,3.13
2023-04-26T18:57:54.480Z,3.10
2023-04-26T18:59:27.595Z,2.70
2023-04-26T19:01:01.002Z,3.63
2023-04-26T19:02:36.251Z,3.07
2023-04-26T19:04:10.921Z,3.07
2023-04-26T19:05:44.214Z,3.47
2023-04-26T19:07:17.275Z,3.20
2023-04-26T19:08:52.557Z,3.00
2023-04-26T19:10:25.741Z,3.57
2023-04-26T19:11:58.784Z,3.53
2023-04-26T19:13:32.915Z,3.20
2023-04-26T19:15:07.286Z,3.40
2023-04-26T19:16:40.473Z,3.00
2023-04-26T19:18:13.821Z,3.20
2023-04-26T19:19:47.098Z,3.40
2023-04-26T19:21:20.172Z,4.00
2023-04-26T19:22:53.309Z,2.90
2023-04-26T19:24:27.741Z,3.73
2023-04-26T19:26:05.445Z,2.90
2023-04-26T19:27:38.495Z,2.97
2023-04-26T19:29:11.777Z,3.10
2023-04-26T19:30:44.870Z,3.20
2023-04-26T19:32:19.701Z,3.50
2023-04-26T19:33:52.739Z,3.17
2023-04-26T19:35:25.843Z,3.03
2023-04-26T19:36:58.881Z,3.00
2023-04-26T19:38:32.001Z,3.67
2023-04-26T19:40:09.065Z,3.40
2023-04-26T19:41:42.112Z,3.37
2023-04-26T19:43:17.209Z,3.23
2023-04-26T19:44:50.353Z,3.03
2023-04-26T19:46:23.719Z,3.67
2023-04-26T19:47:57.260Z,3.00
2023-04-26T19:49:30.341Z,3.20
2023-04-26T19:51:03.457Z,3.30
2023-04-26T19:52:36.529Z,3.53
2023-04-26T19:54:09.611Z,3.57
2023-04-26T19:55:44.052Z,3.87
2023-04-26T19:57:17.316Z,4.40
2023-04-26T19:58:50.628Z,3.90
2023-04-26T20:00:24.898Z,4.30
2023-04-26T20:01:58.003Z,4.37
2023-04-26T20:03:32.851Z,3.93
2023-04-26T20:05:07.021Z,3.73
2023-04-26T20:06:40.052Z,4.10
2023-04-26T20:08:13.199Z,3.87
2023-04-26T20:09:46.262Z,3.83
2023-04-26T20:11:20.720Z,4.33
2023-04-26T20:12:54.165Z,4.07
2023-04-26T20:14:27.447Z,4.43
2023-04-26T20:16:00.677Z,4.10
2023-04-26T20:17:33.804Z,3.73
2023-04-26T20:19:07.162Z,4.23
2023-04-26T20:20:40.452Z,4.00
2023-04-26T20:22:12.532Z,3.90
2023-04-26T20:23:45.877Z,3.90
2023-04-26T20:25:20.245Z,3.93
2023-04-26T20:26:55.355Z,4.30
2023-04-26T20:28:28.443Z,4.27
2023-04-26T20:30:01.563Z,3.93
2023-04-26T20:31:34.905Z,3.90
2023-04-26T20:33:08.516Z,3.93
2023-04-26T20:34:41.629Z,4.20
2023-04-26T20:36:14.968Z,4.17
2023-04-26T20:37:48.048Z,4.70
2023-04-26T20:39:21.880Z,3.90
2023-04-26T20:40:54.960Z,4.20
2023-04-26T20:42:29.387Z,4.80
2023-04-26T20:44:02.509Z,4.20
2023-04-26T20:45:35.746Z,4.23
2023-04-26T20:47:08.828Z,4.43
2023-04-26T20:48:42.094Z,4.03
2023-04-26T20:50:15.192Z,4.40
2023-04-26T20:51:48.327Z,4.43
2023-04-26T20:53:21.497Z,4.40
2023-04-26T20:54:56.205Z,4.67
2023-04-26T20:59:42.127Z,4.27